createdAt,value
2018-05-04T00:01:13.003Z,7.67
2018-05-04T00:02:41.367Z,7.66
2018-05-04T00:04:07.644Z,7.67
2018-05-04T00:05:35.640Z,7.66
2018-05-04T00:07:01.939Z,7.64
2018-05-04T00:08:30.147Z,7.64
2018-05-04T00:09:56.357Z,7.64
2018-05-04T00:11:24.514Z,7.62
2018-05-04T00:12:51.843Z,7.58
2018-05-04T00:14:19.188Z,7.57
2018-05-04T00:15:45.442Z,7.57
2018-05-04T00:17:12.771Z,7.57
2018-05-04T00:18:40.223Z,7.56
2018-05-04T00:20:07.656Z,7.55
2018-05-04T00:21:34.633Z,7.55
2018-05-04T00:23:02.890Z,7.54
2018-05-04T00:24:29.142Z,7.52
2018-05-04T00:25:57.294Z,7.49
2018-05-04T00:27:23.388Z,7.47
2018-05-04T00:28:50.711Z,7.48
2018-05-04T00:30:17.755Z,7.48
2018-05-04T00:31:44.908Z,7.47
2018-05-04T00:33:12.156Z,7.37
2018-05-04T00:34:40.353Z,7.37
2018-05-04T00:36:07.709Z,7.36
2018-05-04T00:37:34.079Z,7.34
2018-05-04T00:39:02.166Z,7.34
2018-05-04T00:40:29.445Z,7.36
2018-05-04T00:41:56.703Z,7.35
2018-05-04T00:43:22.943Z,7.35
2018-05-04T00:44:51.175Z,7.37
2018-05-04T00:46:18.401Z,7.36
2018-05-04T00:47:45.783Z,7.36
2018-05-04T00:49:13.024Z,7.33
2018-05-04T00:50:40.197Z,7.31
2018-05-04T00:52:07.441Z,7.30
2018-05-04T00:53:34.564Z,7.30
2018-05-04T00:55:01.854Z,7.29
2018-05-04T00:56:28.140Z,7.28
2018-05-04T00:57:55.378Z,7.27
2018-05-04T00:59:22.642Z,7.26
2018-05-04T01:00:49.933Z,7.23
2018-05-04T01:02:17.325Z,7.20
2018-05-04T01:03:44.678Z,7.18
2018-05-04T01:05:12.855Z,7.16
2018-05-04T01:06:39.071Z,7.16
2018-05-04T01:08:06.216Z,7.16
2018-05-04T01:09:34.249Z,7.14
2018-05-04T01:11:00.422Z,7.13
2018-05-04T01:12:30.694Z,7.13
2018-05-04T01:13:55.705Z,7.11
2018-05-04T01:15:21.973Z,7.08
2018-05-04T01:16:50.128Z,7.08
2018-05-04T01:18:17.408Z,7.09
2018-05-04T01:19:43.623Z,7.10
2018-05-04T01:21:10.836Z,7.11
2018-05-04T01:22:38.197Z,7.13
2018-05-04T01:24:05.599Z,7.13
2018-05-04T01:25:33.839Z,7.10
2018-05-04T01:27:00.205Z,7.10
2018-05-04T01:28:28.447Z,7.09
2018-05-04T01:29:54.573Z,7.06
2018-05-04T01:31:22.840Z,7.03
2018-05-04T01:32:50.118Z,6.90
2018-05-04T01:34:16.510Z,6.79
2018-05-04T01:35:44.783Z,6.79
2018-05-04T01:37:11.073Z,6.81
2018-05-04T01:38:39.423Z,6.83
2018-05-04T01:40:05.643Z,6.85
2018-05-04T01:41:33.792Z,6.88
2018-05-04T01:43:00.004Z,6.91
2018-05-04T01:44:27.210Z,6.93
2018-05-04T01:45:55.432Z,6.95
2018-05-04T01:47:22.649Z,6.97
2018-05-04T01:48:49.678Z,6.97
2018-05-04T01:50:16.557Z,6.98
2018-05-04T01:51:43.824Z,6.97
2018-05-04T01:53:10.093Z,6.91
2018-05-04T01:54:37.518Z,6.83
2018-05-04T01:56:05.636Z,6.78
2018-05-04T01:57:32.821Z,6.78
2018-05-04T01:58:59.179Z,6.76
2018-05-04T02:00:27.512Z,6.73
2018-05-04T02:01:53.682Z,6.67
2018-05-04T02:03:21.952Z,6.64
2018-05-04T02:04:48.277Z,6.65
2018-05-04T02:06:15.608Z,6.66
2018-05-04T02:07:42.856Z,6.66
2018-05-04T02:09:10.100Z,6.67
2018-05-04T02:10:37.215Z,6.65
2018-05-04T02:12:04.401Z,6.64
2018-05-04T02:13:32.616Z,6.61
2018-05-04T02:14:58.905Z,6.61
2018-05-04T02:16:26.890Z,6.62
2018-05-04T02:17:54.154Z,6.61
2018-05-04T02:19:20.235Z,6.60
2018-05-04T02:20:48.461Z,6.57
2018-05-04T02:22:14.741Z,6.55
2018-05-04T02:23:42.163Z,6.55
2018-05-04T02:25:09.297Z,6.53
2018-05-04T02:26:37.628Z,6.53
2018-05-04T02:28:04.920Z,6.51
2018-05-04T02:29:31.209Z,6.48
2018-05-04T02:30:59.401Z,6.49
2018-05-04T02:32:25.555Z,6.49
2018-05-04T02:33:53.787Z,6.46
2018-05-04T02:35:19.823Z,6.43
2018-05-04T02:36:48.086Z,6.44
2018-05-04T02:38:14.424Z,6.45
2018-05-04T02:39:42.574Z,6.42
2018-05-04T02:41:09.952Z,6.43
2018-05-04T02:42:37.179Z,6.43
2018-05-04T02:44:03.530Z,6.38
2018-05-04T02:45:30.535Z,6.37
2018-05-04T02:46:57.756Z,6.33
2018-05-04T02:48:24.857Z,6.32
2018-05-04T02:49:52.042Z,6.31
2018-05-04T02:51:19.383Z,6.30
2018-05-04T02:52:47.652Z,6.27
2018-05-04T02:54:14.856Z,6.23
2018-05-04T02:55:41.160Z,6.21
2018-05-04T02:57:08.468Z,6.16
2018-05-04T02:58:36.752Z,6.12
2018-05-04T03:00:04.008Z,6.13
2018-05-04T03:01:29.909Z,6.13
2018-05-04T03:02:57.027Z,6.13
2018-05-04T03:04:25.333Z,6.14
2018-05-04T03:05:52.443Z,6.15
2018-05-04T03:07:19.639Z,6.16
2018-05-04T03:08:47.046Z,6.19
2018-05-04T03:10:14.292Z,6.20
2018-05-04T03:11:41.763Z,6.21
2018-05-04T03:13:08.905Z,6.23
2018-05-04T03:14:36.242Z,6.25
2018-05-04T03:16:02.473Z,6.26
2018-05-04T03:17:30.525Z,6.25
2018-05-04T03:18:57.725Z,6.18
2018-05-04T03:20:24.088Z,6.15
2018-05-04T03:21:52.345Z,6.14
2018-05-04T03:23:19.572Z,6.10
2018-05-04T03:24:46.865Z,6.10
2018-05-04T03:26:12.927Z,6.10
2018-05-04T03:27:40.710Z,6.06
2018-05-04T03:29:07.056Z,5.91
2018-05-04T03:30:34.393Z,5.89
2018-05-04T03:32:01.435Z,5.89
2018-05-04T03:33:29.231Z,5.88
2018-05-04T03:34:56.229Z,5.88
2018-05-04T03:36:23.372Z,5.87
2018-05-04T03:37:50.378Z,5.85
2018-05-04T03:39:16.713Z,5.86
2018-05-04T03:40:44.098Z,5.89
2018-05-04T03:42:11.405Z,5.89
2018-05-04T03:43:39.637Z,5.88
2018-05-04T03:45:05.934Z,5.87
2018-05-04T03:46:33.324Z,5.88
2018-05-04T03:48:00.656Z,5.90
2018-05-04T03:49:27.617Z,5.95
2018-05-04T03:50:55.865Z,6.00
2018-05-04T03:52:22.715Z,6.03
2018-05-04T03:53:49.658Z,6.03
2018-05-04T03:55:15.782Z,5.97
2018-05-04T03:56:43.124Z,5.81
2018-05-04T03:58:10.349Z,5.65
2018-05-04T03:59:38.599Z,5.58
2018-05-04T04:01:05.927Z,5.41
2018-05-04T04:02:32.049Z,5.23
2018-05-04T04:04:00.302Z,5.16
2018-05-04T04:05:26.357Z,5.18
2018-05-04T04:06:54.454Z,5.22
2018-05-04T04:08:20.686Z,5.19
2018-05-04T04:09:47.801Z,5.12
2018-05-04T04:11:15.089Z,5.09
2018-05-04T04:12:43.310Z,5.08
2018-05-04T04:14:10.532Z,5.05
2018-05-04T04:15:36.270Z,5.13
2018-05-04T04:17:04.481Z,5.15
2018-05-04T04:18:30.714Z,5.24
2018-05-04T04:19:57.921Z,5.26
2018-05-04T04:21:25.247Z,5.26
2018-05-04T04:22:52.499Z,5.22
2018-05-04T04:24:20.569Z,5.19
2018-05-04T04:25:46.924Z,5.16
2018-05-04T04:27:15.210Z,5.12
2018-05-04T04:28:41.407Z,5.06
2018-05-04T04:30:09.694Z,5.04
2018-05-04T04:31:36.037Z,5.10
2018-05-04T04:33:04.038Z,5.22
2018-05-04T04:34:30.265Z,5.27
2018-05-04T04:35:58.118Z,5.37
2018-05-04T04:37:25.301Z,5.48
2018-05-04T04:38:52.447Z,5.59
2018-05-04T04:40:18.144Z,5.70
2018-05-04T04:41:45.452Z,5.82
2018-05-04T04:43:13.715Z,5.92
2018-05-04T04:44:40.020Z,6.02
2018-05-04T04:46:07.198Z,6.12
2018-05-04T04:47:34.354Z,6.22
2018-05-04T04:49:02.645Z,6.31
2018-05-04T04:50:28.663Z,6.40
2018-05-04T04:51:55.844Z,6.47
2018-05-04T04:53:24.159Z,6.55
2018-05-04T04:54:51.196Z,6.63
2018-05-04T04:56:17.533Z,6.69
2018-05-04T04:57:44.945Z,6.77
2018-05-04T04:59:13.220Z,6.83
2018-05-04T05:00:40.650Z,6.90
2018-05-04T05:02:06.813Z,6.97
2018-05-04T05:03:35.089Z,7.04
2018-05-04T05:05:01.415Z,7.11
2018-05-04T05:06:28.643Z,7.18
2018-05-04T05:07:55.681Z,7.22
2018-05-04T05:09:23.892Z,7.13
2018-05-04T05:10:49.900Z,7.08
2018-05-04T05:12:17.228Z,7.13
2018-05-04T05:13:45.431Z,7.20
2018-05-04T05:15:11.720Z,7.29
2018-05-04T05:16:39.104Z,7.39
2018-05-04T05:18:06.221Z,7.48
2018-05-04T05:19:33.511Z,7.58
2018-05-04T05:21:01.572Z,7.63
2018-05-04T05:22:28.509Z,7.72
2018-05-04T05:23:54.717Z,7.81
2018-05-04T05:25:22.970Z,7.91
2018-05-04T05:26:49.043Z,7.93
2018-05-04T05:28:17.346Z,7.99
2018-05-04T05:29:43.869Z,8.05
2018-05-04T05:31:11.084Z,8.12
2018-05-04T05:32:37.971Z,8.20
2018-05-04T05:34:06.216Z,8.29
2018-05-04T05:35:32.541Z,8.40
2018-05-04T05:36:59.614Z,8.52
2018-05-04T05:38:27.881Z,8.68
2018-05-04T05:39:54.051Z,8.84
2018-05-04T05:41:21.348Z,9.03
2018-05-04T05:42:49.492Z,9.21
2018-05-04T05:44:15.842Z,9.40
2018-05-04T05:45:44.226Z,9.60
2018-05-04T05:47:11.624Z,9.79
2018-05-04T05:48:38.992Z,9.95
2018-05-04T05:50:05.254Z,10.07
2018-05-04T05:51:32.544Z,10.26
2018-05-04T05:53:00.919Z,10.46
2018-05-04T05:54:28.125Z,10.64
2018-05-04T05:55:54.482Z,10.66
2018-05-04T05:57:22.648Z,10.78
2018-05-04T05:58:48.723Z,10.94
2018-05-04T06:00:17.175Z,11.05
2018-05-04T06:01:43.478Z,11.21
2018-05-04T06:03:11.874Z,11.35
2018-05-04T06:04:37.945Z,11.43
2018-05-04T06:06:05.268Z,11.47
2018-05-04T06:07:33.793Z,11.46
2018-05-04T06:09:01.094Z,11.45
2018-05-04T06:10:28.368Z,11.42
2018-05-04T06:11:54.699Z,11.51
2018-05-04T06:13:22.721Z,11.63
2018-05-04T06:14:50.113Z,11.74
2018-05-04T06:16:16.531Z,11.84
2018-05-04T06:17:43.903Z,11.96
2018-05-04T06:19:12.360Z,12.04
2018-05-04T06:20:39.698Z,12.16
2018-05-04T06:22:06.188Z,12.22
2018-05-04T06:23:34.529Z,12.27
2018-05-04T06:25:01.920Z,12.44
2018-05-04T06:26:28.264Z,12.58
2018-05-04T06:27:56.680Z,12.65
2018-05-04T06:29:22.943Z,12.69
2018-05-04T06:30:50.269Z,12.71
2018-05-04T06:32:18.784Z,12.75
2018-05-04T06:33:45.102Z,12.77
2018-05-04T06:35:13.475Z,12.79
2018-05-04T06:36:40.937Z,12.82
2018-05-04T06:38:07.228Z,12.83
2018-05-04T06:39:35.739Z,12.83
2018-05-04T06:41:02.082Z,12.83
2018-05-04T06:42:30.574Z,12.83
2018-05-04T06:43:56.712Z,12.77
2018-05-04T06:45:23.966Z,12.78
2018-05-04T06:46:51.335Z,12.77
2018-05-04T06:48:19.780Z,12.77
2018-05-04T06:49:46.288Z,12.83
2018-05-04T06:51:14.494Z,12.95
2018-05-04T06:52:41.961Z,12.99
2018-05-04T06:54:09.343Z,12.92
2018-05-04T06:55:36.386Z,12.93
2018-05-04T06:57:02.703Z,12.96
2018-05-04T06:58:30.932Z,12.97
2018-05-04T06:59:57.392Z,13.00
2018-05-04T07:01:25.421Z,13.01
2018-05-04T07:02:51.695Z,12.98
2018-05-04T07:04:19.833Z,12.98
2018-05-04T07:05:46.271Z,12.99
2018-05-04T07:07:13.750Z,12.97
2018-05-04T07:08:40.942Z,12.99
2018-05-04T07:10:08.383Z,12.99
2018-05-04T07:11:35.724Z,13.00
2018-05-04T07:13:02.780Z,13.02
2018-05-04T07:14:29.964Z,12.96
2018-05-04T07:15:57.255Z,12.96
2018-05-04T07:17:25.659Z,12.97
2018-05-04T07:18:52.946Z,12.97
2018-05-04T07:20:19.195Z,12.96
2018-05-04T07:21:47.357Z,12.96
2018-05-04T07:23:14.506Z,12.96
2018-05-04T07:24:41.859Z,12.87
2018-05-04T07:26:09.326Z,12.86
2018-05-04T07:27:35.701Z,12.89
2018-05-04T07:29:04.186Z,12.92
2018-05-04T07:30:31.278Z,12.94
2018-05-04T07:31:58.672Z,12.96
2018-05-04T07:33:25.071Z,12.99
2018-05-04T07:34:52.414Z,12.99
2018-05-04T07:36:19.683Z,12.99
2018-05-04T07:37:48.123Z,12.97
2018-05-04T07:39:15.428Z,12.95
2018-05-04T07:40:42.779Z,12.92
2018-05-04T07:42:10.300Z,12.90
2018-05-04T07:43:36.423Z,12.86
2018-05-04T07:45:03.843Z,12.89
2018-05-04T07:46:32.300Z,12.93
2018-05-04T07:47:58.429Z,12.95
2018-05-04T07:49:25.781Z,12.99
2018-05-04T07:50:54.168Z,13.04
2018-05-04T07:52:20.508Z,13.09
2018-05-04T07:53:47.937Z,13.11
2018-05-04T07:55:16.260Z,13.13
2018-05-04T07:56:42.710Z,13.12
2018-05-04T07:58:09.865Z,13.16
2018-05-04T07:59:38.017Z,13.18
2018-05-04T08:01:05.498Z,13.20
2018-05-04T08:02:31.819Z,13.23
2018-05-04T08:03:59.247Z,13.26
2018-05-04T08:05:26.711Z,13.29
2018-05-04T08:06:55.128Z,13.32
2018-05-04T08:08:22.417Z,13.36
2018-05-04T08:09:48.538Z,13.37
2018-05-04T08:11:16.034Z,13.40
2018-05-04T08:12:44.281Z,13.41
2018-05-04T08:14:10.818Z,13.41
2018-05-04T08:15:37.756Z,13.42
2018-05-04T08:17:05.121Z,13.42
2018-05-04T08:18:32.537Z,13.44
2018-05-04T08:20:00.738Z,13.45
2018-05-04T08:21:27.958Z,13.47
2018-05-04T08:22:54.310Z,13.50
2018-05-04T08:24:21.553Z,13.51
2018-05-04T08:25:48.673Z,13.53
2018-05-04T08:27:17.095Z,13.58
2018-05-04T08:28:44.499Z,13.64
2018-05-04T08:30:10.920Z,13.71
2018-05-04T08:31:39.404Z,13.77
2018-05-04T08:33:06.659Z,13.84
2018-05-04T08:34:32.863Z,13.91
2018-05-04T08:36:01.288Z,13.97
2018-05-04T08:37:33.602Z,13.99
2018-05-04T08:38:55.398Z,13.99
2018-05-04T08:40:21.522Z,14.00
2018-05-04T08:41:48.235Z,14.02
2018-05-04T08:43:16.545Z,14.04
2018-05-04T08:44:43.938Z,14.05
2018-05-04T08:46:10.394Z,14.06
2018-05-04T08:47:37.641Z,14.08
2018-05-04T08:49:05.043Z,14.10
2018-05-04T08:50:33.474Z,14.14
2018-05-04T08:51:59.695Z,14.19
2018-05-04T08:53:27.063Z,14.24
2018-05-04T08:54:55.468Z,14.25
2018-05-04T08:56:21.611Z,14.26
2018-05-04T08:57:48.832Z,14.32
2018-05-04T08:59:16.359Z,14.40
2018-05-04T09:00:44.740Z,14.50
2018-05-04T09:02:11.947Z,14.62
2018-05-04T09:03:38.257Z,14.70
2018-05-04T09:05:06.488Z,14.78
2018-05-04T09:06:32.757Z,14.75
2018-05-04T09:08:01.224Z,14.69
2018-05-04T09:09:28.085Z,14.70
2018-05-04T09:10:54.587Z,14.69
2018-05-04T09:12:21.886Z,14.70
2018-05-04T09:13:49.200Z,14.70
2018-05-04T09:15:16.179Z,14.80
2018-05-04T09:16:44.531Z,14.90
2018-05-04T09:18:12.154Z,15.00
2018-05-04T09:19:38.482Z,15.05
2018-05-04T09:21:05.484Z,14.99
2018-05-04T09:22:33.505Z,15.02
2018-05-04T09:24:01.076Z,15.06
2018-05-04T09:25:26.950Z,15.14
2018-05-04T09:26:55.420Z,15.23
2018-05-04T09:28:21.918Z,15.33
2018-05-04T09:29:49.210Z,15.40
2018-05-04T09:31:16.462Z,15.47
2018-05-04T09:32:43.703Z,15.53
2018-05-04T09:34:12.348Z,15.59
2018-05-04T09:35:38.411Z,15.63
2018-05-04T09:37:05.844Z,15.68
2018-05-04T09:38:34.084Z,15.72
2018-05-04T09:40:00.587Z,15.63
2018-05-04T09:41:27.639Z,15.59
2018-05-04T09:42:56.028Z,15.58
2018-05-04T09:44:22.420Z,15.55
2018-05-04T09:45:49.738Z,15.46
2018-05-04T09:47:17.172Z,15.43
2018-05-04T09:48:45.434Z,15.43
2018-05-04T09:50:12.805Z,15.52
2018-05-04T09:51:39.001Z,15.60
2018-05-04T09:53:06.383Z,15.66
2018-05-04T09:54:34.896Z,15.72
2018-05-04T09:56:02.165Z,15.78
2018-05-04T09:57:29.377Z,15.81
2018-05-04T09:58:56.669Z,15.75
2018-05-04T10:00:24.074Z,15.74
2018-05-04T10:01:50.129Z,15.77
2018-05-04T10:03:18.709Z,15.81
2018-05-04T10:04:46.060Z,15.85
2018-05-04T10:06:13.729Z,15.94
2018-05-04T10:07:41.154Z,16.01
2018-05-04T10:09:07.715Z,16.06
2018-05-04T10:10:34.952Z,16.09
2018-05-04T10:12:03.455Z,16.08
2018-05-04T10:13:30.747Z,16.12
2018-05-04T10:14:56.925Z,16.12
2018-05-04T10:16:24.381Z,16.07
2018-05-04T10:17:52.363Z,15.94
2018-05-04T10:19:19.020Z,15.93
2018-05-04T10:20:46.503Z,15.96
2018-05-04T10:22:15.035Z,15.97
2018-05-04T10:23:42.218Z,15.86
2018-05-04T10:25:08.174Z,15.77
2018-05-04T10:26:35.530Z,15.72
2018-05-04T10:28:02.836Z,15.65
2018-05-04T10:29:30.119Z,15.66
2018-05-04T10:30:57.360Z,15.69
2018-05-04T10:32:24.728Z,15.74
2018-05-04T10:33:52.013Z,15.81
2018-05-04T10:35:19.203Z,15.91
2018-05-04T10:36:47.497Z,15.99
2018-05-04T10:38:14.088Z,16.05
2018-05-04T10:39:42.366Z,16.01
2018-05-04T10:41:08.350Z,15.90
2018-05-04T10:42:36.721Z,15.82
2018-05-04T10:44:04.189Z,15.91
2018-05-04T10:45:30.712Z,16.00
2018-05-04T10:46:57.987Z,16.06
2018-05-04T10:48:25.341Z,16.16
2018-05-04T10:49:53.698Z,16.16
2018-05-04T10:51:21.133Z,16.22
2018-05-04T10:52:47.477Z,16.21
2018-05-04T10:54:14.906Z,16.16
2018-05-04T10:55:42.406Z,16.20
2018-05-04T10:57:10.003Z,16.30
2018-05-04T10:58:37.300Z,16.36
2018-05-04T11:00:05.734Z,16.43
2018-05-04T11:01:32.000Z,16.57
2018-05-04T11:02:59.269Z,16.77
2018-05-04T11:04:27.775Z,16.88
2018-05-04T11:05:54.048Z,16.90
2018-05-04T11:07:21.559Z,17.01
2018-05-04T11:08:49.615Z,17.05
2018-05-04T11:10:17.041Z,17.06
2018-05-04T11:11:43.184Z,17.06
2018-05-04T11:13:10.289Z,17.06
2018-05-04T11:14:38.883Z,17.00
2018-05-04T11:16:05.346Z,16.94
2018-05-04T11:17:32.631Z,16.76
2018-05-04T11:19:00.126Z,16.55
2018-05-04T11:20:27.589Z,16.34
2018-05-04T11:21:55.031Z,16.23
2018-05-04T11:23:22.513Z,16.24
2018-05-04T11:24:49.622Z,16.31
2018-05-04T11:26:17.885Z,16.35
2018-05-04T11:27:44.391Z,16.41
2018-05-04T11:29:12.987Z,16.65
2018-05-04T11:30:38.946Z,16.99
2018-05-04T11:32:06.168Z,17.38
2018-05-04T11:33:33.611Z,17.44
2018-05-04T11:35:00.847Z,17.73
2018-05-04T11:36:29.352Z,17.92
2018-05-04T11:37:55.758Z,18.08
2018-05-04T11:39:24.136Z,18.18
2018-05-04T11:40:51.504Z,18.54
2018-05-04T11:42:18.905Z,18.71
2018-05-04T11:43:46.505Z,18.86
2018-05-04T11:45:13.959Z,19.02
2018-05-04T11:46:41.469Z,19.37
2018-05-04T11:48:07.734Z,19.65
2018-05-04T11:49:35.433Z,19.64
2018-05-04T11:51:02.977Z,19.90
2018-05-04T11:52:30.487Z,19.95
2018-05-04T11:53:57.928Z,19.96
2018-05-04T11:55:25.347Z,20.10
2018-05-04T11:56:52.689Z,20.18
2018-05-04T11:58:20.226Z,20.56
2018-05-04T11:59:48.572Z,20.90
2018-05-04T12:01:15.969Z,20.68
2018-05-04T12:02:45.229Z,20.37
2018-05-04T12:04:10.561Z,20.22
2018-05-04T12:05:37.096Z,20.07
2018-05-04T12:07:05.441Z,19.87
2018-05-04T12:08:31.917Z,19.91
2018-05-04T12:09:59.855Z,19.81
2018-05-04T12:11:26.298Z,19.48
2018-05-04T12:12:54.611Z,19.28
2018-05-04T12:14:20.881Z,19.12
2018-05-04T12:15:48.202Z,19.01
2018-05-04T12:17:15.582Z,18.80
2018-05-04T12:18:43.005Z,18.89
2018-05-04T12:20:10.566Z,19.35
2018-05-04T12:21:38.929Z,19.81
2018-05-04T12:23:05.299Z,19.80
2018-05-04T12:24:33.820Z,19.68
2018-05-04T12:26:00.127Z,19.75
2018-05-04T12:27:27.549Z,19.58
2018-05-04T12:28:54.964Z,19.57
2018-05-04T12:30:22.539Z,19.64
2018-05-04T12:31:49.897Z,19.74
2018-05-04T12:33:18.365Z,19.88
2018-05-04T12:34:44.617Z,20.16
2018-05-04T12:36:12.200Z,20.42
2018-05-04T12:37:39.632Z,20.51
2018-05-04T12:39:07.084Z,20.80
2018-05-04T12:40:35.642Z,20.64
2018-05-04T12:42:02.030Z,20.72
2018-05-04T12:43:29.293Z,20.39
2018-05-04T12:44:56.876Z,20.57
2018-05-04T12:46:25.174Z,20.41
2018-05-04T12:47:51.622Z,20.39
2018-05-04T12:49:18.825Z,20.47
2018-05-04T12:50:46.315Z,20.65
2018-05-04T12:52:13.858Z,20.52
2018-05-04T12:53:41.485Z,20.40
2018-05-04T12:55:08.582Z,20.45
2018-05-04T12:56:37.059Z,20.62
2018-05-04T12:58:04.551Z,20.84
2018-05-04T12:59:30.648Z,20.65
2018-05-04T13:00:58.249Z,20.38
2018-05-04T13:02:26.541Z,20.26
2018-05-04T13:03:52.927Z,20.17
2018-05-04T13:05:20.425Z,20.19
2018-05-04T13:06:47.987Z,20.03
2018-05-04T13:08:16.367Z,19.90
2018-05-04T13:09:42.868Z,20.02
2018-05-04T13:11:10.369Z,20.00
2018-05-04T13:12:37.869Z,20.03
2018-05-04T13:14:06.326Z,19.81
2018-05-04T13:15:32.678Z,19.65
2018-05-04T13:17:00.250Z,19.49
2018-05-04T13:18:27.573Z,19.44
2018-05-04T13:19:55.179Z,19.25
2018-05-04T13:21:23.425Z,19.06
2018-05-04T13:22:49.691Z,18.83
2018-05-04T13:24:17.172Z,18.72
2018-05-04T13:25:44.397Z,18.77
2018-05-04T13:27:11.889Z,18.68
2018-05-04T13:28:39.391Z,18.67
2018-05-04T13:30:06.760Z,18.58
2018-05-04T13:31:34.087Z,18.46
2018-05-04T13:33:02.344Z,18.40
2018-05-04T13:34:29.622Z,18.51
2018-05-04T13:35:57.142Z,18.48
2018-05-04T13:37:23.364Z,18.35
2018-05-04T13:38:51.731Z,18.16
2018-05-04T13:40:18.245Z,18.08
2018-05-04T13:41:46.759Z,18.17
2018-05-04T13:43:13.407Z,18.16
2018-05-04T13:44:41.745Z,18.10
2018-05-04T13:46:08.167Z,18.01
2018-05-04T13:47:35.799Z,17.95
2018-05-04T13:49:03.276Z,18.01
2018-05-04T13:50:30.683Z,18.08
2018-05-04T13:51:58.974Z,17.91
2018-05-04T13:53:26.367Z,17.66
2018-05-04T13:54:52.685Z,17.43
2018-05-04T13:56:20.153Z,17.22
2018-05-04T13:57:47.609Z,17.09
2018-05-04T13:59:14.815Z,17.03
2018-05-04T14:00:43.408Z,16.98
2018-05-04T14:02:10.780Z,16.98
2018-05-04T14:03:37.110Z,16.92
2018-05-04T14:05:04.649Z,16.93
2018-05-04T14:06:31.989Z,16.96
2018-05-04T14:07:59.432Z,17.01
2018-05-04T14:09:27.509Z,16.99
2018-05-04T14:10:53.599Z,16.96
2018-05-04T14:12:20.881Z,16.99
2018-05-04T14:13:48.097Z,16.95
2018-05-04T14:15:16.155Z,17.02
2018-05-04T14:16:42.595Z,17.08
2018-05-04T14:18:10.973Z,17.05
2018-05-04T14:19:37.186Z,16.99
2018-05-04T14:21:04.859Z,16.95
2018-05-04T14:22:32.105Z,16.87
2018-05-04T14:23:59.443Z,16.85
2018-05-04T14:25:26.846Z,16.81
2018-05-04T14:26:54.235Z,16.85
2018-05-04T14:28:22.580Z,16.80
2018-05-04T14:29:49.065Z,16.81
2018-05-04T14:31:16.390Z,16.84
2018-05-04T14:32:44.823Z,16.72
2018-05-04T14:34:11.286Z,16.72
2018-05-04T14:35:38.723Z,16.73
2018-05-04T14:37:06.050Z,16.74
2018-05-04T14:38:34.332Z,16.76
2018-05-04T14:40:00.686Z,16.67
2018-05-04T14:41:34.014Z,16.60
2018-05-04T14:42:55.437Z,16.46
2018-05-04T14:44:22.718Z,16.35
2018-05-04T14:45:49.834Z,16.23
2018-05-04T14:47:17.355Z,16.15
2018-05-04T14:48:45.508Z,16.12
2018-05-04T14:50:11.955Z,16.11
2018-05-04T14:51:40.722Z,16.06
2018-05-04T14:53:06.989Z,16.05
2018-05-04T14:54:35.417Z,16.07
2018-05-04T14:56:01.870Z,16.07
2018-05-04T14:57:29.120Z,16.09
2018-05-04T14:58:57.649Z,16.11
2018-05-04T15:00:24.941Z,16.14
2018-05-04T15:01:52.454Z,16.19
2018-05-04T15:03:18.762Z,16.25
2018-05-04T15:04:47.343Z,16.30
2018-05-04T15:06:13.637Z,16.31
2018-05-04T15:07:40.909Z,16.30
2018-05-04T15:09:08.293Z,16.34
2018-05-04T15:10:36.706Z,16.37
2018-05-04T15:12:03.225Z,16.37
2018-05-04T15:13:30.720Z,16.38
2018-05-04T15:14:58.092Z,16.39
2018-05-04T15:16:25.515Z,16.34
2018-05-04T15:17:52.912Z,16.31
2018-05-04T15:19:20.099Z,16.31
2018-05-04T15:20:48.590Z,16.28
2018-05-04T15:22:14.790Z,16.25
2018-05-04T15:23:43.146Z,16.24
2018-05-04T15:25:10.645Z,16.21
2018-05-04T15:26:36.979Z,16.16
2018-05-04T15:28:05.568Z,16.19
2018-05-04T15:29:31.832Z,16.22
2018-05-04T15:30:59.295Z,16.20
2018-05-04T15:32:27.776Z,16.09
2018-05-04T15:33:55.087Z,16.09
2018-05-04T15:35:22.381Z,16.09
2018-05-04T15:36:49.965Z,16.11
2018-05-04T15:38:17.379Z,16.02
2018-05-04T15:39:43.764Z,16.00
2018-05-04T15:41:12.082Z,15.99
2018-05-04T15:42:38.273Z,16.01
2018-05-04T15:44:05.729Z,16.00
2018-05-04T15:45:34.096Z,15.99
2018-05-04T15:47:01.537Z,15.99
2018-05-04T15:48:28.841Z,15.99
2018-05-04T15:49:55.942Z,15.99
2018-05-04T15:51:23.435Z,16.01
2018-05-04T15:52:49.329Z,15.96
2018-05-04T15:54:17.913Z,15.89
2018-05-04T15:55:45.364Z,15.87
2018-05-04T15:57:11.789Z,15.87
2018-05-04T15:58:39.381Z,15.87
2018-05-04T16:00:07.859Z,15.81
2018-05-04T16:01:35.186Z,15.75
2018-05-04T16:03:01.516Z,15.76
2018-05-04T16:04:28.905Z,15.74
2018-05-04T16:05:57.509Z,15.68
2018-05-04T16:07:23.766Z,15.61
2018-05-04T16:08:51.150Z,15.60
2018-05-04T16:10:18.688Z,15.63
2018-05-04T16:11:46.192Z,15.66
2018-05-04T16:13:13.442Z,15.69
2018-05-04T16:14:42.040Z,15.66
2018-05-04T16:16:09.523Z,15.60
2018-05-04T16:17:35.956Z,15.60
2018-05-04T16:19:03.336Z,15.62
2018-05-04T16:20:31.752Z,15.57
2018-05-04T16:21:58.223Z,15.55
2018-05-04T16:23:26.674Z,15.56
2018-05-04T16:24:52.985Z,15.50
2018-05-04T16:26:20.256Z,15.44
2018-05-04T16:27:48.639Z,15.34
2018-05-04T16:29:16.077Z,15.27
2018-05-04T16:30:43.454Z,15.21
2018-05-04T16:32:10.916Z,15.15
2018-05-04T16:33:37.068Z,15.12
2018-05-04T16:35:04.185Z,15.10
2018-05-04T16:36:32.665Z,15.02
2018-05-04T16:37:59.003Z,14.92
2018-05-04T16:39:27.482Z,14.81
2018-05-04T16:40:53.988Z,14.74
2018-05-04T16:42:22.356Z,14.69
2018-05-04T16:43:48.739Z,14.68
2018-05-04T16:45:15.526Z,14.67
2018-05-04T16:46:44.175Z,14.67
2018-05-04T16:48:10.493Z,14.63
2018-05-04T16:49:37.839Z,14.59
2018-05-04T16:51:06.266Z,14.54
2018-05-04T16:52:32.690Z,14.52
2018-05-04T16:54:00.029Z,14.47
2018-05-04T16:55:27.433Z,14.41
2018-05-04T16:56:54.738Z,14.37
2018-05-04T16:58:23.188Z,14.33
2018-05-04T16:59:49.411Z,14.27
2018-05-04T17:01:17.554Z,14.23
2018-05-04T17:02:43.785Z,14.17
2018-05-04T17:04:11.185Z,14.11
2018-05-04T17:05:38.572Z,14.08
2018-05-04T17:07:05.863Z,14.07
2018-05-04T17:08:33.296Z,14.08
2018-05-04T17:10:00.431Z,14.05
2018-05-04T17:11:27.892Z,14.05
2018-05-04T17:12:55.188Z,14.06
2018-05-04T17:14:22.366Z,14.06
2018-05-04T17:15:49.696Z,14.06
2018-05-04T17:17:17.088Z,14.05
2018-05-04T17:18:44.378Z,14.05
2018-05-04T17:20:11.808Z,14.02
2018-05-04T17:21:39.252Z,13.95
2018-05-04T17:23:06.621Z,13.92
2018-05-04T17:24:33.830Z,13.83
2018-05-04T17:26:02.371Z,13.79
2018-05-04T17:27:28.389Z,13.77
2018-05-04T17:28:56.599Z,13.76
2018-05-04T17:30:22.819Z,13.76
2018-05-04T17:31:50.991Z,13.75
2018-05-04T17:33:17.469Z,13.74
2018-05-04T17:34:44.843Z,13.75
2018-05-04T17:36:12.334Z,13.74
2018-05-04T17:37:40.837Z,13.73
2018-05-04T17:39:08.174Z,13.72
2018-05-04T17:40:34.525Z,13.72
2018-05-04T17:42:01.655Z,13.71
2018-05-04T17:43:29.115Z,13.70
2018-05-04T17:44:57.453Z,13.72
2018-05-04T17:46:23.856Z,13.72
2018-05-04T17:47:51.269Z,13.71
2018-05-04T17:49:18.626Z,13.73
2018-05-04T17:50:46.054Z,13.76
2018-05-04T17:52:14.503Z,13.77
2018-05-04T17:53:40.747Z,13.74
2018-05-04T17:55:09.307Z,13.68
2018-05-04T17:56:36.644Z,13.64
2018-05-04T17:58:03.737Z,13.59
2018-05-04T17:59:30.200Z,13.56
2018-05-04T18:00:58.488Z,13.53
2018-05-04T18:02:24.725Z,13.49
2018-05-04T18:03:53.051Z,13.46
2018-05-04T18:05:20.382Z,13.43
2018-05-04T18:06:46.936Z,13.39
2018-05-04T18:08:15.279Z,13.33
2018-05-04T18:09:42.541Z,13.27
2018-05-04T18:11:09.742Z,13.22
2018-05-04T18:12:37.128Z,13.19
2018-05-04T18:14:03.336Z,13.13
2018-05-04T18:15:30.058Z,13.11
2018-05-04T18:16:57.406Z,13.10
2018-05-04T18:18:24.782Z,13.07
2018-05-04T18:19:53.057Z,13.02
2018-05-04T18:21:19.239Z,12.98
2018-05-04T18:22:46.591Z,12.92
2018-05-04T18:24:13.915Z,12.88
2018-05-04T18:25:41.115Z,12.83
2018-05-04T18:27:09.476Z,12.77
2018-05-04T18:28:36.900Z,12.72
2018-05-04T18:30:03.125Z,12.69
2018-05-04T18:31:31.019Z,12.64
2018-05-04T18:32:57.371Z,12.60
2018-05-04T18:34:24.498Z,12.57
2018-05-04T18:35:52.810Z,12.53
2018-05-04T18:37:20.036Z,12.48
2018-05-04T18:38:46.254Z,12.44
2018-05-04T18:40:13.496Z,12.39
2018-05-04T18:41:40.583Z,12.33
2018-05-04T18:43:07.961Z,12.27
2018-05-04T18:44:36.277Z,12.21
2018-05-04T18:46:03.344Z,12.16
2018-05-04T18:47:29.744Z,12.11
2018-05-04T18:48:58.091Z,12.07
2018-05-04T18:50:24.460Z,12.03
2018-05-04T18:51:52.660Z,11.96
2018-05-04T18:53:19.158Z,11.93
2018-05-04T18:54:46.176Z,11.90
2018-05-04T18:56:13.534Z,11.88